createdAt,value
2023-01-20T00:02:19.792Z,27.64
2023-01-20T00:04:50.620Z,27.63
2023-01-20T00:07:20.545Z,27.67
2023-01-20T00:09:50.577Z,27.65
2023-01-20T00:12:20.438Z,27.67
2023-01-20T00:14:50.757Z,27.67
2023-01-20T00:17:20.566Z,27.69
2023-01-20T00:19:49.780Z,27.69
2023-01-20T00:22:19.600Z,27.70
2023-01-20T00:24:49.761Z,27.75
2023-01-20T00:27:20.567Z,27.77
2023-01-20T00:29:50.530Z,27.76
2023-01-20T00:32:20.703Z,27.78
2023-01-20T00:34:50.665Z,27.76
2023-01-20T00:37:20.796Z,27.76
2023-01-20T00:39:50.037Z,27.74
2023-01-20T00:42:19.789Z,27.73
2023-01-20T00:44:50.139Z,27.70
2023-01-20T00:47:21.133Z,27.71
2023-01-20T00:49:51.053Z,27.72
2023-01-20T00:52:20.676Z,27.72
2023-01-20T00:54:50.836Z,27.70
2023-01-20T00:57:20.092Z,27.70
2023-01-20T00:59:49.847Z,27.69
2023-01-20T01:02:20.142Z,27.69
2023-01-20T01:04:52.615Z,27.66
2023-01-20T01:07:21.869Z,27.63
2023-01-20T01:09:51.450Z,27.60
2023-01-20T01:12:23.615Z,27.56
2023-01-20T01:14:52.989Z,27.56
2023-01-20T01:17:23.529Z,27.60
2023-01-20T01:19:55.839Z,27.58
2023-01-20T01:22:24.908Z,27.57
2023-01-20T01:24:54.168Z,27.54
2023-01-20T01:27:23.429Z,27.49
2023-01-20T01:29:55.568Z,27.41
2023-01-20T01:32:25.002Z,27.44
2023-01-20T01:34:54.331Z,27.46
2023-01-20T01:37:23.544Z,27.46
2023-01-20T01:39:52.695Z,27.46
2023-01-20T01:42:22.155Z,27.46
2023-01-20T01:45:05.375Z,27.47
2023-01-20T01:47:34.658Z,27.47
2023-01-20T01:50:03.921Z,27.47
2023-01-20T01:52:33.443Z,27.48
2023-01-20T01:55:02.706Z,27.48
2023-01-20T01:57:34.939Z,27.46
2023-01-20T02:00:04.516Z,27.50
2023-01-20T02:02:33.753Z,27.50
2023-01-20T02:05:02.971Z,27.49
2023-01-20T02:07:32.189Z,27.50
2023-01-20T02:10:01.425Z,27.50
2023-01-20T02:12:30.679Z,27.53
2023-01-20T02:15:00.423Z,27.51
2023-01-20T02:17:37.062Z,27.49
2023-01-20T02:20:25.666Z,27.50
2023-01-20T02:22:59.541Z,27.51
2023-01-20T02:25:33.349Z,27.47
2023-01-20T02:28:19.204Z,27.49
2023-01-20T02:31:07.194Z,27.51
2023-01-20T02:33:46.640Z,27.50
2023-01-20T02:36:17.276Z,27.50
2023-01-20T02:39:01.884Z,27.50
2023-01-20T02:41:50.743Z,27.48
2023-01-20T02:44:24.172Z,27.48
2023-01-20T02:47:07.039Z,27.41
2023-01-20T02:49:37.744Z,27.36
2023-01-20T02:52:16.165Z,27.39
2023-01-20T02:54:45.979Z,27.41
2023-01-20T02:57:16.194Z,27.41
2023-01-20T02:59:46.916Z,27.41
2023-01-20T03:02:17.358Z,27.40
2023-01-20T03:04:48.762Z,27.40
2023-01-20T03:07:18.333Z,27.35
2023-01-20T03:09:49.279Z,27.33
2023-01-20T03:12:21.995Z,27.32
2023-01-20T03:14:52.816Z,27.33
2023-01-20T03:17:22.007Z,27.30
2023-01-20T03:19:54.787Z,27.29
2023-01-20T03:22:24.064Z,27.26
2023-01-20T03:24:53.360Z,27.22
2023-01-20T03:27:22.569Z,27.22
2023-01-20T03:29:51.807Z,27.22
2023-01-20T03:32:22.913Z,27.22
2023-01-20T03:34:52.067Z,27.20
2023-01-20T03:37:22.369Z,27.21
2023-01-20T03:39:51.546Z,27.20
2023-01-20T03:42:25.731Z,27.21
2023-01-20T03:44:59.378Z,27.21
2023-01-20T03:47:33.067Z,27.19
2023-01-20T03:50:06.488Z,27.19
2023-01-20T03:52:47.440Z,27.19
2023-01-20T03:55:08.872Z,27.19
2023-01-20T03:57:39.421Z,27.20
2023-01-20T04:00:09.133Z,27.20
2023-01-20T04:02:38.372Z,27.20
2023-01-20T04:05:07.759Z,27.20
2023-01-20T04:07:37.083Z,27.25
2023-01-20T04:10:08.279Z,27.26
2023-01-20T04:12:37.937Z,27.24
2023-01-20T04:15:07.517Z,27.25
2023-01-20T04:17:45.344Z,27.26
2023-01-20T04:20:19.330Z,27.22
2023-01-20T04:23:04.222Z,27.24
2023-01-20T04:25:49.626Z,27.22
2023-01-20T04:28:19.422Z,27.21
2023-01-20T04:30:52.155Z,27.15
2023-01-20T04:33:23.556Z,27.14
2023-01-20T04:36:06.379Z,27.11
2023-01-20T04:38:37.940Z,27.10
2023-01-20T04:41:09.902Z,27.08
2023-01-20T04:43:42.208Z,27.08
2023-01-20T04:46:12.734Z,27.02
2023-01-20T04:48:42.068Z,27.00
2023-01-20T04:51:11.407Z,26.99
2023-01-20T04:53:40.753Z,26.98
2023-01-20T04:56:11.811Z,26.94
2023-01-20T04:58:41.071Z,26.90
2023-01-20T05:01:10.424Z,26.89
2023-01-20T05:03:39.617Z,26.85
2023-01-20T05:06:08.923Z,26.85
2023-01-20T05:08:38.181Z,26.84
2023-01-20T05:11:07.459Z,26.83
2023-01-20T05:13:40.519Z,26.77
2023-01-20T05:16:09.196Z,26.77
2023-01-20T05:18:38.737Z,26.74
2023-01-20T05:21:09.830Z,26.74
2023-01-20T05:23:39.065Z,26.77
2023-01-20T05:26:08.375Z,26.71
2023-01-20T05:28:37.886Z,26.68
2023-01-20T05:31:07.223Z,26.62
2023-01-20T05:33:36.536Z,26.64
2023-01-20T05:36:09.246Z,26.64
2023-01-20T05:38:38.435Z,26.61
2023-01-20T05:41:07.936Z,26.60
2023-01-20T05:43:37.549Z,26.58
2023-01-20T05:46:07.887Z,26.57
2023-01-20T05:48:37.849Z,26.55
2023-01-20T05:51:08.032Z,26.54
2023-01-20T05:53:39.069Z,26.55
2023-01-20T05:56:08.533Z,26.55
2023-01-20T05:58:37.780Z,26.53
2023-01-20T06:01:10.271Z,26.52
2023-01-20T06:03:39.659Z,26.52
2023-01-20T06:06:12.352Z,26.51
2023-01-20T06:08:41.629Z,26.49
2023-01-20T06:11:10.813Z,26.51
2023-01-20T06:13:40.618Z,26.49
2023-01-20T06:16:10.087Z,26.49
2023-01-20T06:18:39.347Z,26.46
2023-01-20T06:21:08.760Z,26.47
2023-01-20T06:23:37.931Z,26.45
2023-01-20T06:26:10.773Z,26.43
2023-01-20T06:28:40.281Z,26.42
2023-01-20T06:31:14.185Z,26.43
2023-01-20T06:33:43.487Z,26.44
2023-01-20T06:36:14.528Z,26.41
2023-01-20T06:38:45.331Z,26.42
2023-01-20T06:41:14.643Z,26.41
2023-01-20T06:43:43.968Z,26.38
2023-01-20T06:46:13.681Z,26.38
2023-01-20T06:48:43.286Z,26.38
2023-01-20T06:51:13.516Z,26.37
2023-01-20T06:53:42.850Z,26.37
2023-01-20T06:56:12.647Z,26.36
2023-01-20T06:58:42.060Z,26.33
2023-01-20T07:01:12.776Z,26.37
2023-01-20T07:03:44.010Z,26.32
2023-01-20T07:06:17.014Z,26.32
2023-01-20T07:08:46.502Z,26.33
2023-01-20T07:11:16.027Z,26.34
2023-01-20T07:13:45.795Z,26.33
2023-01-20T07:16:15.955Z,26.34
2023-01-20T07:18:45.912Z,26.32
2023-01-20T07:21:15.126Z,26.32
2023-01-20T07:23:44.403Z,26.31
2023-01-20T07:26:17.246Z,26.28
2023-01-20T07:28:46.577Z,26.31
2023-01-20T07:31:17.281Z,26.29
2023-01-20T07:33:48.119Z,26.29
2023-01-20T07:36:17.439Z,26.30
2023-01-20T07:38:48.101Z,26.27
2023-01-20T07:41:17.673Z,26.27
2023-01-20T07:43:48.287Z,26.28
2023-01-20T07:46:17.497Z,26.27
2023-01-20T07:48:46.775Z,26.28
2023-01-20T07:51:16.141Z,26.29
2023-01-20T07:53:48.990Z,26.26
2023-01-20T07:56:25.116Z,26.27
2023-01-20T07:58:57.112Z,26.24
2023-01-20T08:01:27.336Z,26.28
2023-01-20T08:03:56.736Z,26.27
2023-01-20T08:06:26.548Z,26.27
2023-01-20T08:08:58.445Z,26.25
2023-01-20T08:11:26.515Z,26.26
2023-01-20T08:13:55.720Z,26.26
2023-01-20T08:16:25.043Z,26.26
2023-01-20T08:18:55.758Z,26.25
2023-01-20T08:21:25.539Z,26.25
2023-01-20T08:23:55.085Z,26.25
2023-01-20T08:26:25.912Z,26.22
2023-01-20T08:28:55.263Z,26.25
2023-01-20T08:31:25.180Z,26.27
2023-01-20T08:33:55.137Z,26.32
2023-01-20T08:36:28.457Z,26.34
2023-01-20T08:38:58.468Z,26.37
2023-01-20T08:41:28.490Z,26.39
2023-01-20T08:43:57.960Z,26.41
2023-01-20T08:46:27.292Z,26.45
2023-01-20T08:48:57.209Z,26.47
2023-01-20T08:51:27.764Z,26.50
2023-01-20T08:53:57.066Z,26.51
2023-01-20T08:56:26.306Z,26.54
2023-01-20T08:58:55.464Z,26.55
2023-01-20T09:01:25.561Z,26.57
2023-01-20T09:04:06.429Z,26.62
2023-01-20T09:06:28.537Z,26.61
2023-01-20T09:08:57.907Z,26.63
2023-01-20T09:11:27.197Z,26.66
2023-01-20T09:13:57.086Z,26.67
2023-01-20T09:16:26.795Z,26.69
2023-01-20T09:18:59.667Z,26.70
2023-01-20T09:21:29.205Z,26.71
2023-01-20T09:23:58.636Z,26.70
2023-01-20T09:26:35.828Z,26.68
2023-01-20T09:28:58.331Z,26.63
2023-01-20T09:31:27.667Z,26.63
2023-01-20T09:33:58.400Z,26.64
2023-01-20T09:36:29.016Z,26.62
2023-01-20T09:39:15.863Z,26.60
2023-01-20T09:42:02.460Z,26.56
2023-01-20T09:44:33.093Z,26.47
2023-01-20T09:47:21.608Z,26.45
2023-01-20T09:50:26.873Z,26.41
2023-01-20T09:53:04.759Z,26.36
2023-01-20T09:55:38.157Z,26.36
2023-01-20T09:58:17.595Z,26.38
2023-01-20T10:00:48.221Z,26.33
2023-01-20T10:03:18.953Z,26.36
2023-01-20T10:05:49.146Z,26.33
2023-01-20T10:08:26.223Z,26.33
2023-01-20T10:10:56.879Z,26.32
2023-01-20T10:13:36.941Z,26.29
2023-01-20T10:16:07.470Z,26.33
2023-01-20T10:18:41.394Z,26.31
2023-01-20T10:21:12.244Z,26.29
2023-01-20T10:23:46.160Z,26.28
2023-01-20T10:26:19.824Z,26.30
2023-01-20T10:28:57.363Z,26.26
2023-01-20T10:31:28.786Z,26.25
2023-01-20T10:33:58.203Z,26.27
2023-01-20T10:36:28.811Z,26.27
2023-01-20T10:38:59.592Z,26.30
2023-01-20T10:41:41.699Z,26.27
2023-01-20T10:44:14.339Z,26.28
2023-01-20T10:46:59.063Z,26.27
2023-01-20T10:49:47.167Z,26.28
2023-01-20T10:52:32.795Z,26.28
2023-01-20T10:55:19.811Z,26.30
2023-01-20T10:58:06.696Z,26.27
2023-01-20T11:00:36.603Z,26.29
2023-01-20T11:03:07.124Z,26.24
2023-01-20T11:05:42.003Z,26.27
2023-01-20T11:08:12.842Z,26.27
2023-01-20T11:10:42.747Z,26.27
2023-01-20T11:13:12.296Z,26.26
2023-01-20T11:15:42.988Z,26.24
2023-01-20T11:18:19.908Z,26.25
2023-01-20T11:21:03.002Z,26.25
2023-01-20T11:23:41.928Z,26.24
2023-01-20T11:26:12.689Z,26.24
2023-01-20T11:28:49.438Z,26.24
2023-01-20T11:31:19.333Z,26.24
2023-01-20T11:33:59.483Z,26.23
2023-01-20T11:36:28.774Z,26.25
2023-01-20T11:38:58.360Z,26.26
2023-01-20T11:41:31.135Z,26.23
2023-01-20T11:44:00.696Z,26.31
2023-01-20T11:46:30.983Z,26.36
2023-01-20T11:49:16.585Z,26.39
2023-01-20T11:51:49.877Z,26.48
2023-01-20T11:54:23.295Z,26.55
2023-01-20T11:56:54.167Z,26.73
2023-01-20T11:59:25.136Z,26.87
2023-01-20T12:01:55.875Z,26.94
2023-01-20T12:04:25.536Z,27.00
2023-01-20T12:06:58.221Z,27.04
2023-01-20T12:09:29.355Z,27.09
2023-01-20T12:12:01.936Z,27.10
2023-01-20T12:14:35.317Z,27.12
2023-01-20T12:17:15.492Z,27.15
2023-01-20T12:19:46.265Z,27.15
2023-01-20T12:22:16.855Z,27.16
2023-01-20T12:25:09.290Z,27.18
2023-01-20T12:27:39.972Z,27.15
2023-01-20T12:30:10.008Z,27.16
2023-01-20T12:32:40.630Z,27.15
2023-01-20T12:35:11.272Z,27.13
2023-01-20T12:37:42.161Z,27.12
2023-01-20T12:40:19.030Z,27.07
2023-01-20T12:43:01.750Z,27.02
2023-01-20T12:45:48.873Z,26.99
2023-01-20T12:48:19.489Z,26.97
2023-01-20T12:50:53.551Z,26.98
2023-01-20T12:53:37.700Z,27.01
2023-01-20T12:56:14.344Z,27.01
2023-01-20T12:58:47.984Z,26.95
2023-01-20T13:01:35.080Z,26.92
2023-01-20T13:04:05.978Z,26.88
2023-01-20T13:06:48.736Z,26.83
2023-01-20T13:09:25.508Z,26.80
2023-01-20T13:11:56.521Z,26.78
2023-01-20T13:14:27.209Z,26.81
2023-01-20T13:17:04.025Z,26.74
2023-01-20T13:19:34.606Z,26.71
2023-01-20T13:22:13.478Z,26.69
2023-01-20T13:24:43.786Z,26.66
2023-01-20T13:27:14.385Z,26.65
2023-01-20T13:29:50.926Z,26.63
2023-01-20T13:32:30.693Z,26.60
2023-01-20T13:34:59.877Z,26.57
2023-01-20T13:37:30.210Z,26.51
2023-01-20T13:40:00.951Z,26.55
2023-01-20T13:42:40.814Z,26.55
2023-01-20T13:45:18.139Z,26.49
2023-01-20T13:47:52.197Z,26.46
2023-01-20T13:50:26.400Z,26.42
2023-01-20T13:52:57.135Z,26.39
2023-01-20T13:55:30.219Z,26.40
2023-01-20T13:58:02.136Z,26.39
2023-01-20T14:00:31.263Z,26.34
2023-01-20T14:03:00.467Z,26.31
2023-01-20T14:05:30.860Z,26.29
2023-01-20T14:08:00.151Z,26.28
2023-01-20T14:10:30.070Z,26.24
2023-01-20T14:12:59.406Z,26.21
2023-01-20T14:15:29.714Z,26.19
2023-01-20T14:17:58.855Z,26.17
2023-01-20T14:20:28.167Z,26.18
2023-01-20T14:22:57.386Z,26.14
2023-01-20T14:25:27.342Z,26.15
2023-01-20T14:27:57.380Z,26.12
2023-01-20T14:30:27.060Z,26.12
2023-01-20T14:32:56.225Z,26.11
2023-01-20T14:35:28.383Z,26.08
2023-01-20T14:37:57.705Z,26.05
2023-01-20T14:40:30.624Z,26.05
2023-01-20T14:43:09.435Z,26.04
2023-01-20T14:45:38.730Z,26.04
2023-01-20T14:48:08.215Z,26.02
2023-01-20T14:50:37.559Z,26.00
2023-01-20T14:53:06.988Z,26.02
2023-01-20T14:55:41.026Z,25.99
2023-01-20T14:58:10.710Z,25.99
2023-01-20T15:00:40.035Z,25.97
2023-01-20T15:03:11.704Z,25.98
2023-01-20T15:05:42.050Z,25.99
2023-01-20T15:08:16.152Z,25.96
2023-01-20T15:10:45.360Z,25.95
2023-01-20T15:13:25.117Z,25.96
2023-01-20T15:15:54.484Z,25.94
2023-01-20T15:18:24.170Z,25.91
2023-01-20T15:21:03.817Z,25.89
2023-01-20T15:23:36.542Z,25.90
2023-01-20T15:26:12.865Z,25.88
2023-01-20T15:28:45.247Z,25.88
2023-01-20T15:31:15.310Z,25.84
2023-01-20T15:33:44.774Z,25.83
2023-01-20T15:36:24.767Z,25.79
2023-01-20T15:38:53.988Z,25.75
2023-01-20T15:41:23.483Z,25.73
2023-01-20T15:43:54.279Z,25.71
2023-01-20T15:46:23.973Z,25.70
2023-01-20T15:48:53.766Z,25.72
2023-01-20T15:51:22.958Z,25.68
2023-01-20T15:53:52.506Z,25.70
2023-01-20T15:56:23.877Z,25.68
2023-01-20T15:58:53.597Z,25.67
2023-01-20T16:01:25.022Z,25.63
2023-01-20T16:03:55.964Z,25.64
2023-01-20T16:06:26.506Z,25.64
2023-01-20T16:08:55.710Z,25.67
2023-01-20T16:11:25.006Z,25.67
2023-01-20T16:13:54.645Z,25.66
2023-01-20T16:16:24.485Z,25.63
2023-01-20T16:18:53.908Z,25.64
2023-01-20T16:21:23.498Z,25.62
2023-01-20T16:23:53.628Z,25.63
2023-01-20T16:26:24.072Z,25.59
2023-01-20T16:32:31.010Z,25.60
2023-01-20T16:35:00.412Z,25.64
2023-01-20T16:37:29.663Z,25.61
2023-01-20T16:39:58.934Z,25.58
2023-01-20T16:42:28.202Z,25.58
2023-01-20T16:44:57.407Z,25.57
2023-01-20T16:47:32.531Z,25.56
2023-01-20T16:50:01.871Z,25.59
2023-01-20T16:52:31.003Z,25.61
2023-01-20T16:55:00.307Z,25.63
2023-01-20T16:57:29.634Z,25.71
2023-01-20T16:59:58.824Z,25.74
2023-01-20T17:02:28.426Z,25.78
2023-01-20T17:04:57.617Z,25.80
2023-01-20T17:07:28.312Z,25.78
2023-01-20T17:09:58.524Z,25.78
2023-01-20T17:12:27.772Z,25.75
2023-01-20T17:14:57.240Z,25.76
2023-01-20T17:17:27.315Z,25.75
2023-01-20T17:19:56.766Z,25.75
2023-01-20T17:22:25.967Z,25.78
2023-01-20T17:24:55.268Z,25.79
2023-01-20T17:27:24.485Z,25.76
2023-01-20T17:29:53.678Z,25.76
2023-01-20T17:32:22.837Z,25.78
2023-01-20T17:34:52.156Z,25.80
2023-01-20T17:37:21.956Z,25.82
2023-01-20T17:39:52.054Z,25.86
2023-01-20T17:42:21.937Z,25.87
2023-01-20T17:44:51.965Z,25.91
2023-01-20T17:47:22.039Z,25.93
2023-01-20T17:49:52.239Z,25.93
2023-01-20T17:52:23.608Z,25.97
2023-01-20T17:54:53.867Z,25.98
2023-01-20T17:57:25.074Z,26.00
2023-01-20T17:59:54.599Z,26.03
2023-01-20T18:02:23.967Z,26.05
2023-01-20T18:04:53.826Z,26.09
2023-01-20T18:07:23.853Z,26.11
2023-01-20T18:09:53.961Z,26.16
2023-01-20T18:12:23.885Z,26.16
2023-01-20T18:14:55.104Z,26.20
2023-01-20T18:17:24.276Z,26.21
2023-01-20T18:19:53.764Z,26.20
2023-01-20T18:22:23.736Z,26.22
2023-01-20T18:24:53.939Z,26.24
2023-01-20T18:27:23.611Z,26.26
2023-01-20T18:29:53.019Z,26.24
2023-01-20T18:32:23.105Z,26.24
2023-01-20T18:34:52.976Z,26.21
2023-01-20T18:37:22.997Z,26.21
2023-01-20T18:39:53.174Z,26.21
2023-01-20T18:42:22.901Z,26.23
2023-01-20T18:44:53.331Z,26.23
2023-01-20T18:47:22.943Z,26.23
2023-01-20T18:49:53.105Z,26.21
2023-01-20T18:52:23.027Z,26.24
2023-01-20T18:54:52.961Z,26.25
2023-01-20T18:57:23.030Z,26.25
2023-01-20T18:59:53.084Z,26.26
2023-01-20T19:02:22.989Z,26.24
2023-01-20T19:04:53.120Z,26.25
2023-01-20T19:07:23.068Z,26.30
2023-01-20T19:09:53.248Z,26.30
2023-01-20T19:12:23.162Z,26.32
2023-01-20T19:14:53.442Z,26.32
2023-01-20T19:17:23.103Z,26.33
2023-01-20T19:19:53.189Z,26.32
2023-01-20T19:22:23.084Z,26.34
2023-01-20T19:24:53.170Z,26.34
2023-01-20T19:27:23.445Z,26.35
2023-01-20T19:29:53.216Z,26.35
2023-01-20T19:32:23.065Z,26.35
2023-01-20T19:34:53.242Z,26.37
2023-01-20T19:37:23.172Z,26.38
2023-01-20T19:39:53.138Z,26.35
2023-01-20T19:42:24.220Z,26.37
2023-01-20T19:44:54.062Z,26.39
2023-01-20T19:47:24.096Z,26.40
2023-01-20T19:52:30.376Z,26.39
2023-01-20T19:54:59.650Z,26.39
2023-01-20T19:57:28.985Z,26.39
2023-01-20T19:59:58.223Z,26.41
2023-01-20T20:02:28.338Z,26.41
2023-01-20T20:04:57.616Z,26.41
2023-01-20T20:07:26.902Z,26.42
2023-01-20T20:09:56.196Z,26.41
2023-01-20T20:12:25.295Z,26.42
2023-01-20T20:14:54.452Z,26.42
2023-01-20T20:17:24.231Z,26.44
2023-01-20T20:19:53.938Z,26.42
2023-01-20T20:22:24.302Z,26.44
2023-01-20T20:24:54.179Z,26.43
2023-01-20T20:27:24.160Z,26.43
2023-01-20T20:29:54.689Z,26.43
2023-01-20T20:32:26.640Z,26.43
2023-01-20T20:34:54.906Z,26.45
2023-01-20T20:37:24.080Z,26.46
2023-01-20T20:39:54.199Z,26.46
2023-01-20T20:42:24.237Z,26.48
2023-01-20T20:44:53.478Z,26.49
2023-01-20T20:47:25.206Z,26.51
2023-01-20T20:49:54.308Z,26.48
2023-01-20T20:52:24.142Z,26.50
2023-01-20T20:54:55.694Z,26.51
2023-01-20T20:57:25.002Z,26.50
2023-01-20T20:59:59.136Z,26.53
2023-01-20T21:02:24.963Z,26.54
2023-01-20T21:04:54.243Z,26.53
2023-01-20T21:07:26.882Z,26.54
2023-01-20T21:09:56.227Z,26.58
2023-01-20T21:12:25.514Z,26.58
2023-01-20T21:14:54.703Z,26.59
2023-01-20T21:17:24.048Z,26.61
2023-01-20T21:19:55.943Z,26.63
2023-01-20T21:22:25.104Z,26.61
2023-01-20T21:24:54.518Z,26.62
2023-01-20T21:27:24.298Z,26.65
2023-01-20T21:29:54.250Z,26.66
2023-01-20T21:32:24.346Z,26.65
2023-01-20T21:34:53.801Z,26.69
2023-01-20T21:37:23.483Z,26.70
2023-01-20T21:39:53.736Z,26.69
2023-01-20T21:42:23.368Z,26.74
2023-01-20T21:44:53.470Z,26.73
2023-01-20T21:47:23.971Z,26.75
2023-01-20T21:50:10.828Z,26.77
2023-01-20T21:52:43.177Z,26.79
2023-01-20T21:55:17.672Z,26.79
2023-01-20T21:57:48.406Z,26.84
2023-01-20T22:00:18.448Z,26.85
2023-01-20T22:02:47.861Z,26.87
2023-01-20T22:05:17.147Z,26.87
2023-01-20T22:07:47.828Z,26.88
2023-01-20T22:10:17.325Z,26.90
2023-01-20T22:12:46.832Z,26.94
2023-01-20T22:15:16.167Z,26.92
2023-01-20T22:17:46.340Z,26.94
2023-01-20T22:20:16.025Z,26.92
2023-01-20T22:22:45.422Z,26.96
2023-01-20T22:25:14.680Z,26.94
2023-01-20T22:27:43.927Z,26.95
2023-01-20T22:30:13.539Z,26.97
2023-01-20T22:32:42.806Z,26.99
2023-01-20T22:35:12.354Z,26.98
2023-01-20T22:37:41.607Z,27.04
2023-01-20T22:40:11.327Z,27.01
2023-01-20T22:42:40.685Z,27.04
2023-01-20T22:45:10.560Z,27.03
2023-01-20T22:47:39.809Z,27.04
2023-01-20T22:50:09.382Z,27.04
2023-01-20T22:52:38.633Z,27.06
2023-01-20T22:55:08.126Z,27.06
2023-01-20T22:57:37.377Z,27.06
2023-01-20T23:00:08.323Z,27.07
2023-01-20T23:02:38.861Z,27.07
2023-01-20T23:05:08.169Z,27.07
2023-01-20T23:07:38.869Z,27.09
2023-01-20T23:10:08.585Z,27.09
2023-01-20T23:12:37.820Z,27.10
2023-01-20T23:15:07.376Z,27.10
2023-01-20T23:17:36.618Z,27.10
2023-01-20T23:20:05.845Z,27.10
2023-01-20T23:22:35.137Z,27.11
2023-01-20T23:25:06.738Z,27.10
2023-01-20T23:27:35.909Z,27.11
2023-01-20T23:30:05.556Z,27.11
2023-01-20T23:32:34.819Z,27.13
2023-01-20T23:35:04.067Z,27.14
2023-01-20T23:37:33.416Z,27.14
2023-01-20T23:40:02.613Z,27.12
2023-01-20T23:42:31.822Z,27.12
2023-01-20T23:45:01.393Z,27.13
2023-01-20T23:47:30.581Z,27.14
2023-01-20T23:49:59.743Z,27.14
2023-01-20T23:52:29.013Z,27.15
2023-01-20T23:54:58.732Z,27.13
2023-01-20T23:57:28.519Z,27.12
2023-01-20T23:59:57.749Z,27.12
